sensor_id;sensor_type;location;lat;lon;timestamp;P1;durP1;ratioP1;P2;durP2;ratioP2
6438;SDS011;3252;52.540;13.290;2022-12-10T00:00:33;20.53;;;14.80;;
6438;SDS011;3252;52.540;13.290;2022-12-10T00:02:36;21.60;;;15.40;;
6438;SDS011;3252;52.540;13.290;2022-12-10T00:04:38;22.63;;;16.17;;
6438;SDS011;3252;52.540;13.290;2022-12-10T00:06:41;22.20;;;15.57;;
6438;SDS011;3252;52.540;13.290;2022-12-10T00:08:44;21.83;;;15.73;;
6438;SDS011;3252;52.540;13.290;2022-12-10T00:10:46;22.77;;;15.80;;
6438;SDS011;3252;52.540;13.290;2022-12-10T00:12:48;20.87;;;15.27;;
6438;SDS011;3252;52.540;13.290;2022-12-10T00:14:52;21.10;;;15.20;;
6438;SDS011;3252;52.540;13.290;2022-12-10T00:16:54;21.50;;;14.23;;
6438;SDS011;3252;52.540;13.290;2022-12-10T00:18:57;21.23;;;14.87;;
6438;SDS011;3252;52.540;13.290;2022-12-10T00:21:01;22.63;;;15.80;;
6438;SDS011;3252;52.540;13.290;2022-12-10T00:23:04;20.97;;;15.23;;
6438;SDS011;3252;52.540;13.290;2022-12-10T00:25:06;24.70;;;15.07;;
6438;SDS011;3252;52.540;13.290;2022-12-10T00:27:09;24.05;;;19.27;;
6438;SDS011;3252;52.540;13.290;2022-12-10T00:29:13;24.30;;;17.50;;
6438;SDS011;3252;52.540;13.290;2022-12-10T00:31:17;24.33;;;17.27;;
6438;SDS011;3252;52.540;13.290;2022-12-10T00:33:21;23.33;;;16.10;;
6438;SDS011;3252;52.540;13.290;2022-12-10T00:35:24;24.60;;;17.10;;
6438;SDS011;3252;52.540;13.290;2022-12-10T00:37:26;22.07;;;16.33;;
6438;SDS011;3252;52.540;13.290;2022-12-10T00:39:29;21.30;;;15.97;;
6438;SDS011;3252;52.540;13.290;2022-12-10T00:41:31;22.27;;;16.77;;
6438;SDS011;3252;52.540;13.290;2022-12-10T00:43:35;22.33;;;17.00;;
6438;SDS011;3252;52.540;13.290;2022-12-10T00:45:37;24.73;;;17.77;;
6438;SDS011;3252;52.540;13.290;2022-12-10T00:47:42;23.60;;;16.83;;
6438;SDS011;3252;52.540;13.290;2022-12-10T00:49:44;22.87;;;16.77;;
6438;SDS011;3252;52.540;13.290;2022-12-10T00:51:47;23.60;;;16.73;;
6438;SDS011;3252;52.540;13.290;2022-12-10T00:53:50;24.00;;;17.77;;
6438;SDS011;3252;52.540;13.290;2022-12-10T00:55:54;24.50;;;17.73;;
6438;SDS011;3252;52.540;13.290;2022-12-10T00:57:58;23.43;;;16.83;;
6438;SDS011;3252;52.540;13.290;2022-12-10T01:00:01;25.23;;;18.03;;
6438;SDS011;3252;52.540;13.290;2022-12-10T01:02:04;22.10;;;16.70;;
6438;SDS011;3252;52.540;13.290;2022-12-10T01:04:09;22.37;;;16.33;;
6438;SDS011;3252;52.540;13.290;2022-12-10T01:06:14;25.10;;;17.13;;
6438;SDS011;3252;52.540;13.290;2022-12-10T01:08:21;22.53;;;16.80;;
6438;SDS011;3252;52.540;13.290;2022-12-10T01:10:27;22.37;;;16.77;;
6438;SDS011;3252;52.540;13.290;2022-12-10T01:12:41;24.07;;;16.23;;
6438;SDS011;3252;52.540;13.290;2022-12-10T01:14:49;21.40;;;15.20;;
6438;SDS011;3252;52.540;13.290;2022-12-10T01:16:53;21.67;;;15.93;;
6438;SDS011;3252;52.540;13.290;2022-12-10T01:18:57;21.10;;;15.20;;
6438;SDS011;3252;52.540;13.290;2022-12-10T01:21:02;19.73;;;15.33;;
6438;SDS011;3252;52.540;13.290;2022-12-10T01:23:06;22.93;;;16.23;;
6438;SDS011;3252;52.540;13.290;2022-12-10T01:25:09;22.27;;;15.80;;
6438;SDS011;3252;52.540;13.290;2022-12-10T01:27:12;21.57;;;15.83;;
6438;SDS011;3252;52.540;13.290;2022-12-10T01:29:16;21.47;;;16.20;;
6438;SDS011;3252;52.540;13.290;2022-12-10T01:31:24;20.33;;;14.53;;
6438;SDS011;3252;52.540;13.290;2022-12-10T01:33:28;20.20;;;15.33;;
6438;SDS011;3252;52.540;13.290;2022-12-10T01:35:31;21.00;;;15.47;;
6438;SDS011;3252;52.540;13.290;2022-12-10T01:37:38;20.87;;;15.43;;
6438;SDS011;3252;52.540;13.290;2022-12-10T01:39:40;19.27;;;14.67;;
6438;SDS011;3252;52.540;13.290;2022-12-10T01:41:44;20.87;;;15.27;;
6438;SDS011;3252;52.540;13.290;2022-12-10T01:43:53;20.87;;;16.10;;
6438;SDS011;3252;52.540;13.290;2022-12-10T01:45:58;20.90;;;16.10;;
6438;SDS011;3252;52.540;13.290;2022-12-10T01:48:01;20.63;;;15.90;;
6438;SDS011;3252;52.540;13.290;2022-12-10T01:50:05;20.80;;;16.23;;
6438;SDS011;3252;52.540;13.290;2022-12-10T01:52:11;20.30;;;15.33;;
6438;SDS011;3252;52.540;13.290;2022-12-10T01:54:16;19.57;;;15.77;;
6438;SDS011;3252;52.540;13.290;2022-12-10T01:56:27;22.60;;;16.80;;
6438;SDS011;3252;52.540;13.290;2022-12-10T01:58:30;22.73;;;17.70;;
6438;SDS011;3252;52.540;13.290;2022-12-10T02:00:34;22.07;;;16.20;;
6438;SDS011;3252;52.540;13.290;2022-12-10T02:02:41;23.07;;;16.53;;
6438;SDS011;3252;52.540;13.290;2022-12-10T02:04:50;22.90;;;16.53;;
6438;SDS011;3252;52.540;13.290;2022-12-10T02:07:05;22.33;;;16.37;;
6438;SDS011;3252;52.540;13.290;2022-12-10T02:09:12;19.63;;;15.33;;
6438;SDS011;3252;52.540;13.290;2022-12-10T02:11:29;23.17;;;16.50;;
6438;SDS011;3252;52.540;13.290;2022-12-10T02:13:39;21.43;;;16.57;;
6438;SDS011;3252;52.540;13.290;2022-12-10T02:15:43;23.13;;;16.97;;
6438;SDS011;3252;52.540;13.290;2022-12-10T02:17:51;22.90;;;16.23;;
6438;SDS011;3252;52.540;13.290;2022-12-10T02:19:59;20.63;;;15.97;;
6438;SDS011;3252;52.540;13.290;2022-12-10T02:22:06;23.23;;;16.53;;
6438;SDS011;3252;52.540;13.290;2022-12-10T02:24:13;21.40;;;15.83;;
6438;SDS011;3252;52.540;13.290;2022-12-10T02:26:22;20.67;;;16.87;;
6438;SDS011;3252;52.540;13.290;2022-12-10T02:28:32;20.37;;;15.40;;
6438;SDS011;3252;52.540;13.290;2022-12-10T02:30:43;20.07;;;14.97;;
6438;SDS011;3252;52.540;13.290;2022-12-10T02:32:47;20.17;;;15.67;;
6438;SDS011;3252;52.540;13.290;2022-12-10T02:34:54;19.50;;;15.20;;
6438;SDS011;3252;52.540;13.290;2022-12-10T02:37:00;20.73;;;15.67;;
6438;SDS011;3252;52.540;13.290;2022-12-10T02:39:08;20.80;;;15.87;;
6438;SDS011;3252;52.540;13.290;2022-12-10T02:41:21;19.70;;;14.90;;
6438;SDS011;3252;52.540;13.290;2022-12-10T02:43:28;21.27;;;15.87;;
6438;SDS011;3252;52.540;13.290;2022-12-10T02:45:32;20.67;;;15.80;;
6438;SDS011;3252;52.540;13.290;2022-12-10T02:47:37;21.30;;;15.27;;
6438;SDS011;3252;52.540;13.290;2022-12-10T02:49:42;18.13;;;14.70;;
6438;SDS011;3252;52.540;13.290;2022-12-10T02:51:46;22.53;;;15.53;;
6438;SDS011;3252;52.540;13.290;2022-12-10T02:53:57;19.47;;;14.93;;
6438;SDS011;3252;52.540;13.290;2022-12-10T03:20:26;21.97;;;15.67;;
6438;SDS011;3252;52.540;13.290;2022-12-10T03:22:32;23.73;;;16.37;;
6438;SDS011;3252;52.540;13.290;2022-12-10T03:24:35;25.03;;;18.03;;
6438;SDS011;3252;52.540;13.290;2022-12-10T03:26:39;24.50;;;16.87;;
6438;SDS011;3252;52.540;13.290;2022-12-10T03:28:44;24.00;;;17.43;;
6438;SDS011;3252;52.540;13.290;2022-12-10T03:30:50;24.20;;;17.57;;
6438;SDS011;3252;52.540;13.290;2022-12-10T03:32:56;24.50;;;17.50;;
6438;SDS011;3252;52.540;13.290;2022-12-10T03:34:59;25.10;;;18.13;;
6438;SDS011;3252;52.540;13.290;2022-12-10T03:37:04;22.70;;;17.50;;
6438;SDS011;3252;52.540;13.290;2022-12-10T03:39:08;23.57;;;17.43;;
6438;SDS011;3252;52.540;13.290;2022-12-10T03:41:13;23.00;;;16.70;;
6438;SDS011;3252;52.540;13.290;2022-12-10T03:43:16;22.40;;;17.53;;
6438;SDS011;3252;52.540;13.290;2022-12-10T03:45:22;21.83;;;17.33;;
6438;SDS011;3252;52.540;13.290;2022-12-10T03:47:27;19.90;;;15.83;;
6438;SDS011;3252;52.540;13.290;2022-12-10T03:49:31;23.03;;;16.90;;
6438;SDS011;3252;52.540;13.290;2022-12-10T03:51:34;20.50;;;16.53;;
6438;SDS011;3252;52.540;13.290;2022-12-10T03:53:40;20.57;;;15.87;;
6438;SDS011;3252;52.540;13.290;2022-12-10T03:55:44;22.40;;;16.40;;
6438;SDS011;3252;52.540;13.290;2022-12-10T03:57:47;23.63;;;17.27;;
6438;SDS011;3252;52.540;13.290;2022-12-10T03:59:50;22.87;;;17.33;;
6438;SDS011;3252;52.540;13.290;2022-12-10T04:01:53;22.37;;;16.67;;
6438;SDS011;3252;52.540;13.290;2022-12-10T04:03:56;22.70;;;17.33;;
6438;SDS011;3252;52.540;13.290;2022-12-10T04:06:00;26.20;;;18.03;;
6438;SDS011;3252;52.540;13.290;2022-12-10T04:08:06;23.43;;;17.90;;
6438;SDS011;3252;52.540;13.290;2022-12-10T04:10:12;23.70;;;17.87;;
6438;SDS011;3252;52.540;13.290;2022-12-10T04:12:16;23.40;;;17.37;;
6438;SDS011;3252;52.540;13.290;2022-12-10T04:14:18;24.23;;;18.27;;
6438;SDS011;3252;52.540;13.290;2022-12-10T04:16:38;25.03;;;18.20;;
6438;SDS011;3252;52.540;13.290;2022-12-10T04:18:42;25.13;;;18.47;;
6438;SDS011;3252;52.540;13.290;2022-12-10T04:23:33;26.57;;;18.67;;
6438;SDS011;3252;52.540;13.290;2022-12-10T04:25:55;24.67;;;19.23;;
6438;SDS011;3252;52.540;13.290;2022-12-10T04:28:15;25.87;;;19.23;;
6438;SDS011;3252;52.540;13.290;2022-12-10T04:30:22;22.80;;;17.23;;
6438;SDS011;3252;52.540;13.290;2022-12-10T04:32:27;26.57;;;19.00;;
6438;SDS011;3252;52.540;13.290;2022-12-10T04:34:33;26.13;;;19.60;;
6438;SDS011;3252;52.540;13.290;2022-12-10T04:36:37;24.87;;;18.60;;
6438;SDS011;3252;52.540;13.290;2022-12-10T04:38:41;24.83;;;19.50;;
6438;SDS011;3252;52.540;13.290;2022-12-10T04:40:48;27.97;;;20.30;;
6438;SDS011;3252;52.540;13.290;2022-12-10T04:42:56;25.93;;;19.13;;
6438;SDS011;3252;52.540;13.290;2022-12-10T04:45:09;25.23;;;19.30;;
6438;SDS011;3252;52.540;13.290;2022-12-10T04:47:22;24.07;;;18.20;;
6438;SDS011;3252;52.540;13.290;2022-12-10T04:49:31;25.37;;;19.77;;
6438;SDS011;3252;52.540;13.290;2022-12-10T04:51:36;26.90;;;19.37;;
6438;SDS011;3252;52.540;13.290;2022-12-10T04:53:42;25.73;;;19.27;;
6438;SDS011;3252;52.540;13.290;2022-12-10T04:56:05;26.17;;;19.00;;
6438;SDS011;3252;52.540;13.290;2022-12-10T04:58:14;25.47;;;18.97;;
6438;SDS011;3252;52.540;13.290;2022-12-10T05:00:32;23.57;;;18.17;;
6438;SDS011;3252;52.540;13.290;2022-12-10T05:02:47;22.83;;;18.13;;
6438;SDS011;3252;52.540;13.290;2022-12-10T05:05:01;26.23;;;18.43;;
6438;SDS011;3252;52.540;13.290;2022-12-10T05:07:21;26.37;;;18.10;;
6438;SDS011;3252;52.540;13.290;2022-12-10T05:09:35;26.37;;;16.93;;
6438;SDS011;3252;52.540;13.290;2022-12-10T05:11:53;25.80;;;18.80;;
6438;SDS011;3252;52.540;13.290;2022-12-10T05:14:16;25.30;;;18.80;;
6438;SDS011;3252;52.540;13.290;2022-12-10T05:16:39;25.77;;;17.83;;
6438;SDS011;3252;52.540;13.290;2022-12-10T05:38:42;18.97;;;14.37;;
6438;SDS011;3252;52.540;13.290;2022-12-10T05:41:06;17.60;;;13.80;;
6438;SDS011;3252;52.540;13.290;2022-12-10T05:43:17;17.90;;;13.43;;
6438;SDS011;3252;52.540;13.290;2022-12-10T05:45:31;19.27;;;13.47;;
6438;SDS011;3252;52.540;13.290;2022-12-10T05:47:38;16.53;;;13.23;;
6438;SDS011;3252;52.540;13.290;2022-12-10T05:49:42;17.43;;;13.03;;
6438;SDS011;3252;52.540;13.290;2022-12-10T05:51:48;18.30;;;13.47;;
6438;SDS011;3252;52.540;13.290;2022-12-10T05:53:59;18.73;;;13.57;;
6438;SDS011;3252;52.540;13.290;2022-12-10T05:56:21;16.87;;;12.33;;
6438;SDS011;3252;52.540;13.290;2022-12-10T05:58:33;15.97;;;13.60;;
6438;SDS011;3252;52.540;13.290;2022-12-10T06:01:06;18.63;;;13.27;;
6438;SDS011;3252;52.540;13.290;2022-12-10T06:03:13;19.00;;;13.23;;
6438;SDS011;3252;52.540;13.290;2022-12-10T06:05:36;19.17;;;13.43;;
6438;SDS011;3252;52.540;13.290;2022-12-10T06:07:51;15.43;;;12.57;;
6438;SDS011;3252;52.540;13.290;2022-12-10T06:12:55;15.87;;;12.20;;
6438;SDS011;3252;52.540;13.290;2022-12-10T06:15:16;18.10;;;12.57;;
6438;SDS011;3252;52.540;13.290;2022-12-10T06:17:52;16.43;;;11.77;;
6438;SDS011;3252;52.540;13.290;2022-12-10T06:20:20;15.27;;;11.80;;
6438;SDS011;3252;52.540;13.290;2022-12-10T06:22:38;15.37;;;12.13;;
6438;SDS011;3252;52.540;13.290;2022-12-10T06:24:48;16.90;;;12.37;;
6438;SDS011;3252;52.540;13.290;2022-12-10T06:27:03;17.70;;;13.40;;
6438;SDS011;3252;52.540;13.290;2022-12-10T06:29:19;16.90;;;13.40;;
6438;SDS011;3252;52.540;13.290;2022-12-10T06:31:42;18.80;;;14.80;;
6438;SDS011;3252;52.540;13.290;2022-12-10T06:56:02;13.13;;;10.63;;
6438;SDS011;3252;52.540;13.290;2022-12-10T06:58:17;13.67;;;10.97;;
6438;SDS011;3252;52.540;13.290;2022-12-10T07:00:30;14.27;;;10.27;;
6438;SDS011;3252;52.540;13.290;2022-12-10T07:02:42;12.83;;;10.33;;
6438;SDS011;3252;52.540;13.290;2022-12-10T07:04:51;13.83;;;10.57;;
6438;SDS011;3252;52.540;13.290;2022-12-10T07:07:04;13.03;;;10.00;;
6438;SDS011;3252;52.540;13.290;2022-12-10T07:09:17;12.13;;;10.37;;
6438;SDS011;3252;52.540;13.290;2022-12-10T07:11:32;15.00;;;10.87;;
6438;SDS011;3252;52.540;13.290;2022-12-10T07:14:06;13.87;;;10.40;;
6438;SDS011;3252;52.540;13.290;2022-12-10T07:16:44;12.73;;;10.60;;
6438;SDS011;3252;52.540;13.290;2022-12-10T07:18:55;14.77;;;10.30;;
6438;SDS011;3252;52.540;13.290;2022-12-10T07:33:42;13.13;;;10.33;;
6438;SDS011;3252;52.540;13.290;2022-12-10T07:38:45;12.13;;;10.03;;
6438;SDS011;3252;52.540;13.290;2022-12-10T07:48:56;11.87;;;9.67;;
6438;SDS011;3252;52.540;13.290;2022-12-10T07:51:06;16.77;;;10.53;;
6438;SDS011;3252;52.540;13.290;2022-12-10T07:53:09;13.77;;;11.00;;
6438;SDS011;3252;52.540;13.290;2022-12-10T07:55:11;14.30;;;11.00;;
6438;SDS011;3252;52.540;13.290;2022-12-10T07:57:13;13.53;;;10.97;;
6438;SDS011;3252;52.540;13.290;2022-12-10T07:59:16;12.47;;;10.80;;
6438;SDS011;3252;52.540;13.290;2022-12-10T08:01:19;13.90;;;10.83;;
6438;SDS011;3252;52.540;13.290;2022-12-10T08:03:23;12.50;;;9.87;;
6438;SDS011;3252;52.540;13.290;2022-12-10T08:05:27;12.70;;;10.07;;
6438;SDS011;3252;52.540;13.290;2022-12-10T08:07:29;12.80;;;11.30;;
6438;SDS011;3252;52.540;13.290;2022-12-10T08:09:31;11.73;;;9.77;;
6438;SDS011;3252;52.540;13.290;2022-12-10T08:11:33;12.17;;;9.57;;
6438;SDS011;3252;52.540;13.290;2022-12-10T08:13:35;12.93;;;10.20;;
6438;SDS011;3252;52.540;13.290;2022-12-10T08:15:38;14.07;;;10.70;;
6438;SDS011;3252;52.540;13.290;2022-12-10T08:17:41;13.30;;;9.93;;
6438;SDS011;3252;52.540;13.290;2022-12-10T08:19:44;13.63;;;10.10;;
6438;SDS011;3252;52.540;13.290;2022-12-10T08:21:48;11.53;;;9.90;;
6438;SDS011;3252;52.540;13.290;2022-12-10T08:23:50;13.50;;;10.37;;
6438;SDS011;3252;52.540;13.290;2022-12-10T08:25:52;12.40;;;9.97;;
6438;SDS011;3252;52.540;13.290;2022-12-10T08:27:55;12.30;;;10.10;;
6438;SDS011;3252;52.540;13.290;2022-12-10T08:29:57;13.20;;;9.57;;
6438;SDS011;3252;52.540;13.290;2022-12-10T08:32:00;12.43;;;10.87;;
6438;SDS011;3252;52.540;13.290;2022-12-10T08:34:02;11.30;;;9.53;;
6438;SDS011;3252;52.540;13.290;2022-12-10T08:36:06;13.03;;;9.50;;
6438;SDS011;3252;52.540;13.290;2022-12-10T08:38:11;12.57;;;10.10;;
6438;SDS011;3252;52.540;13.290;2022-12-10T08:40:13;11.00;;;9.50;;
6438;SDS011;3252;52.540;13.290;2022-12-10T08:42:16;14.33;;;10.37;;
6438;SDS011;3252;52.540;13.290;2022-12-10T08:44:18;15.33;;;11.77;;
6438;SDS011;3252;52.540;13.290;2022-12-10T08:46:20;12.33;;;9.90;;
6438;SDS011;3252;52.540;13.290;2022-12-10T08:48:23;11.40;;;10.20;;
6438;SDS011;3252;52.540;13.290;2022-12-10T08:50:25;13.43;;;10.00;;
6438;SDS011;3252;52.540;13.290;2022-12-10T08:52:28;12.63;;;9.17;;
6438;SDS011;3252;52.540;13.290;2022-12-10T08:54:33;11.87;;;10.10;;
6438;SDS011;3252;52.540;13.290;2022-12-10T08:56:35;11.33;;;9.27;;
6438;SDS011;3252;52.540;13.290;2022-12-10T08:58:39;12.40;;;10.03;;
6438;SDS011;3252;52.540;13.290;2022-12-10T09:00:41;12.90;;;9.67;;
6438;SDS011;3252;52.540;13.290;2022-12-10T09:02:43;12.80;;;9.60;;
6438;SDS011;3252;52.540;13.290;2022-12-10T09:04:46;13.70;;;9.90;;
6438;SDS011;3252;52.540;13.290;2022-12-10T09:06:49;12.53;;;9.73;;
6438;SDS011;3252;52.540;13.290;2022-12-10T09:08:53;15.50;;;11.57;;
6438;SDS011;3252;52.540;13.290;2022-12-10T09:10:57;11.40;;;9.67;;
6438;SDS011;3252;52.540;13.290;2022-12-10T09:12:59;12.17;;;9.50;;
6438;SDS011;3252;52.540;13.290;2022-12-10T09:15:03;13.17;;;10.07;;
6438;SDS011;3252;52.540;13.290;2022-12-10T09:17:06;14.20;;;9.80;;
6438;SDS011;3252;52.540;13.290;2022-12-10T09:19:08;12.87;;;9.50;;
6438;SDS011;3252;52.540;13.290;2022-12-10T09:21:11;11.20;;;9.70;;
6438;SDS011;3252;52.540;13.290;2022-12-10T09:23:14;11.93;;;9.63;;
6438;SDS011;3252;52.540;13.290;2022-12-10T09:25:17;12.47;;;9.60;;
6438;SDS011;3252;52.540;13.290;2022-12-10T09:27:23;12.53;;;9.40;;
6438;SDS011;3252;52.540;13.290;2022-12-10T09:29:25;11.03;;;9.27;;
6438;SDS011;3252;52.540;13.290;2022-12-10T09:31:27;11.80;;;9.57;;
6438;SDS011;3252;52.540;13.290;2022-12-10T09:33:31;12.10;;;9.83;;
6438;SDS011;3252;52.540;13.290;2022-12-10T09:35:34;13.00;;;9.77;;
6438;SDS011;3252;52.540;13.290;2022-12-10T09:37:40;13.90;;;10.93;;
6438;SDS011;3252;52.540;13.290;2022-12-10T09:39:43;11.87;;;9.60;;
6438;SDS011;3252;52.540;13.290;2022-12-10T09:41:57;12.53;;;9.93;;
6438;SDS011;3252;52.540;13.290;2022-12-10T09:44:12;12.73;;;9.83;;
6438;SDS011;3252;52.540;13.290;2022-12-10T09:46:23;13.53;;;9.47;;
6438;SDS011;3252;52.540;13.290;2022-12-10T09:48:30;12.73;;;8.60;;
6438;SDS011;3252;52.540;13.290;2022-12-10T09:50:44;13.27;;;9.93;;
6438;SDS011;3252;52.540;13.290;2022-12-10T09:52:52;12.40;;;9.40;;
6438;SDS011;3252;52.540;13.290;2022-12-10T09:54:58;12.83;;;9.90;;
6438;SDS011;3252;52.540;13.290;2022-12-10T09:57:03;12.90;;;9.90;;
6438;SDS011;3252;52.540;13.290;2022-12-10T09:59:13;12.17;;;9.70;;
6438;SDS011;3252;52.540;13.290;2022-12-10T10:01:22;14.20;;;9.70;;
6438;SDS011;3252;52.540;13.290;2022-12-10T10:03:29;11.00;;;9.53;;
6438;SDS011;3252;52.540;13.290;2022-12-10T10:05:36;11.57;;;9.03;;
6438;SDS011;3252;52.540;13.290;2022-12-10T10:07:43;12.63;;;9.63;;
6438;SDS011;3252;52.540;13.290;2022-12-10T10:09:47;11.07;;;8.97;;
6438;SDS011;3252;52.540;13.290;2022-12-10T10:11:51;11.97;;;9.97;;
6438;SDS011;3252;52.540;13.290;2022-12-10T10:13:55;10.47;;;8.73;;
6438;SDS011;3252;52.540;13.290;2022-12-10T10:16:09;11.77;;;9.57;;
6438;SDS011;3252;52.540;13.290;2022-12-10T10:18:21;14.37;;;10.60;;
6438;SDS011;3252;52.540;13.290;2022-12-10T10:20:31;14.90;;;9.90;;
6438;SDS011;3252;52.540;13.290;2022-12-10T10:22:33;12.50;;;9.87;;
6438;SDS011;3252;52.540;13.290;2022-12-10T10:24:37;12.87;;;10.00;;
6438;SDS011;3252;52.540;13.290;2022-12-10T10:26:41;18.60;;;14.47;;
6438;SDS011;3252;52.540;13.290;2022-12-10T10:28:43;11.70;;;9.83;;
6438;SDS011;3252;52.540;13.290;2022-12-10T10:30:47;12.67;;;9.67;;
6438;SDS011;3252;52.540;13.290;2022-12-10T10:32:53;11.23;;;9.57;;
6438;SDS011;3252;52.540;13.290;2022-12-10T10:34:58;10.53;;;9.23;;
6438;SDS011;3252;52.540;13.290;2022-12-10T10:37:01;11.87;;;9.73;;
6438;SDS011;3252;52.540;13.290;2022-12-10T10:39:09;11.33;;;9.83;;
6438;SDS011;3252;52.540;13.290;2022-12-10T10:41:27;11.33;;;9.80;;
6438;SDS011;3252;52.540;13.290;2022-12-10T10:43:39;12.43;;;9.47;;
6438;SDS011;3252;52.540;13.290;2022-12-10T10:45:47;11.67;;;9.50;;
6438;SDS011;3252;52.540;13.290;2022-12-10T10:48:03;12.60;;;9.73;;
6438;SDS011;3252;52.540;13.290;2022-12-10T10:50:12;12.93;;;9.73;;
6438;SDS011;3252;52.540;13.290;2022-12-10T10:52:27;12.23;;;10.00;;
6438;SDS011;3252;52.540;13.290;2022-12-10T10:54:31;14.40;;;11.13;;
6438;SDS011;3252;52.540;13.290;2022-12-10T10:56:38;11.93;;;9.70;;
6438;SDS011;3252;52.540;13.290;2022-12-10T10:58:47;12.03;;;10.47;;
6438;SDS011;3252;52.540;13.290;2022-12-10T11:00:55;13.10;;;10.07;;
6438;SDS011;3252;52.540;13.290;2022-12-10T11:03:00;13.03;;;9.63;;
6438;SDS011;3252;52.540;13.290;2022-12-10T11:05:04;13.00;;;11.07;;
6438;SDS011;3252;52.540;13.290;2022-12-10T11:07:12;13.70;;;10.90;;
6438;SDS011;3252;52.540;13.290;2022-12-10T11:09:21;13.07;;;10.20;;
6438;SDS011;3252;52.540;13.290;2022-12-10T11:11:31;12.13;;;10.33;;
6438;SDS011;3252;52.540;13.290;2022-12-10T11:13:35;16.93;;;10.83;;
6438;SDS011;3252;52.540;13.290;2022-12-10T11:15:39;17.03;;;10.93;;
6438;SDS011;3252;52.540;13.290;2022-12-10T11:17:46;18.97;;;13.17;;
6438;SDS011;3252;52.540;13.290;2022-12-10T11:19:55;13.67;;;11.37;;
6438;SDS011;3252;52.540;13.290;2022-12-10T11:22:14;12.70;;;10.13;;
6438;SDS011;3252;52.540;13.290;2022-12-10T11:24:19;15.40;;;10.67;;
6438;SDS011;3252;52.540;13.290;2022-12-10T11:26:26;13.47;;;10.80;;
6438;SDS011;3252;52.540;13.290;2022-12-10T11:28:49;12.87;;;10.73;;
6438;SDS011;3252;52.540;13.290;2022-12-10T11:31:01;14.00;;;11.00;;
6438;SDS011;3252;52.540;13.290;2022-12-10T11:33:19;12.80;;;10.30;;
6438;SDS011;3252;52.540;13.290;2022-12-10T11:35:30;14.20;;;11.40;;
6438;SDS011;3252;52.540;13.290;2022-12-10T11:37:48;13.07;;;10.87;;
6438;SDS011;3252;52.540;13.290;2022-12-10T11:40:06;14.57;;;12.13;;
6438;SDS011;3252;52.540;13.290;2022-12-10T11:42:38;15.57;;;11.77;;
6438;SDS011;3252;52.540;13.290;2022-12-10T11:44:49;14.03;;;11.23;;
6438;SDS011;3252;52.540;13.290;2022-12-10T11:47:03;13.37;;;11.30;;
6438;SDS011;3252;52.540;13.290;2022-12-10T11:49:27;14.63;;;11.60;;
6438;SDS011;3252;52.540;13.290;2022-12-10T11:51:40;13.43;;;11.23;;
6438;SDS011;3252;52.540;13.290;2022-12-10T11:53:52;16.10;;;12.47;;
6438;SDS011;3252;52.540;13.290;2022-12-10T11:56:04;13.87;;;11.53;;
6438;SDS011;3252;52.540;13.290;2022-12-10T11:58:22;14.73;;;11.30;;
6438;SDS011;3252;52.540;13.290;2022-12-10T12:00:37;14.87;;;12.00;;
6438;SDS011;3252;52.540;13.290;2022-12-10T12:02:55;13.83;;;12.00;;
6438;SDS011;3252;52.540;13.290;2022-12-10T12:05:24;14.37;;;12.10;;
6438;SDS011;3252;52.540;13.290;2022-12-10T12:07:39;15.37;;;11.83;;
6438;SDS011;3252;52.540;13.290;2022-12-10T12:09:54;13.60;;;12.00;;
6438;SDS011;3252;52.540;13.290;2022-12-10T12:12:24;14.83;;;12.13;;
6438;SDS011;3252;52.540;13.290;2022-12-10T12:14:36;14.50;;;11.80;;
6438;SDS011;3252;52.540;13.290;2022-12-10T12:16:44;16.33;;;12.20;;
6438;SDS011;3252;52.540;13.290;2022-12-10T12:18:53;14.97;;;12.73;;
6438;SDS011;3252;52.540;13.290;2022-12-10T12:21:01;14.97;;;12.23;;
6438;SDS011;3252;52.540;13.290;2022-12-10T12:23:10;13.47;;;11.93;;
6438;SDS011;3252;52.540;13.290;2022-12-10T12:25:20;16.30;;;12.70;;
6438;SDS011;3252;52.540;13.290;2022-12-10T12:27:28;16.07;;;12.70;;
6438;SDS011;3252;52.540;13.290;2022-12-10T12:29:35;17.13;;;13.10;;
6438;SDS011;3252;52.540;13.290;2022-12-10T12:31:43;17.13;;;12.23;;
6438;SDS011;3252;52.540;13.290;2022-12-10T12:33:50;15.10;;;12.33;;
6438;SDS011;3252;52.540;13.290;2022-12-10T12:35:57;14.70;;;12.00;;
6438;SDS011;3252;52.540;13.290;2022-12-10T12:38:06;15.67;;;12.57;;
6438;SDS011;3252;52.540;13.290;2022-12-10T12:40:36;14.20;;;10.97;;
6438;SDS011;3252;52.540;13.290;2022-12-10T12:42:45;14.40;;;12.37;;
6438;SDS011;3252;52.540;13.290;2022-12-10T12:44:56;16.20;;;12.60;;
6438;SDS011;3252;52.540;13.290;2022-12-10T12:47:11;16.90;;;13.47;;
6438;SDS011;3252;52.540;13.290;2022-12-10T12:49:24;19.33;;;13.00;;
6438;SDS011;3252;52.540;13.290;2022-12-10T12:51:31;17.33;;;12.97;;
6438;SDS011;3252;52.540;13.290;2022-12-10T12:53:37;16.93;;;13.03;;
6438;SDS011;3252;52.540;13.290;2022-12-10T12:55:44;16.77;;;13.23;;
6438;SDS011;3252;52.540;13.290;2022-12-10T12:57:52;15.87;;;12.23;;
6438;SDS011;3252;52.540;13.290;2022-12-10T13:00:03;17.57;;;13.17;;
6438;SDS011;3252;52.540;13.290;2022-12-10T13:02:16;16.87;;;12.40;;
6438;SDS011;3252;52.540;13.290;2022-12-10T13:04:23;15.40;;;12.10;;
6438;SDS011;3252;52.540;13.290;2022-12-10T13:06:29;16.17;;;12.13;;
6438;SDS011;3252;52.540;13.290;2022-12-10T13:08:33;15.17;;;11.93;;
6438;SDS011;3252;52.540;13.290;2022-12-10T13:10:45;15.67;;;12.90;;
6438;SDS011;3252;52.540;13.290;2022-12-10T13:12:51;17.47;;;12.23;;
6438;SDS011;3252;52.540;13.290;2022-12-10T13:15:18;18.80;;;12.97;;
6438;SDS011;3252;52.540;13.290;2022-12-10T13:17:25;19.20;;;13.23;;
6438;SDS011;3252;52.540;13.290;2022-12-10T13:19:30;18.87;;;12.77;;
6438;SDS011;3252;52.540;13.290;2022-12-10T13:21:32;16.97;;;12.50;;
6438;SDS011;3252;52.540;13.290;2022-12-10T13:23:34;16.97;;;12.50;;
6438;SDS011;3252;52.540;13.290;2022-12-10T13:25:58;21.43;;;13.03;;
6438;SDS011;3252;52.540;13.290;2022-12-10T13:28:14;19.67;;;12.63;;
6438;SDS011;3252;52.540;13.290;2022-12-10T13:30:28;19.37;;;12.27;;
6438;SDS011;3252;52.540;13.290;2022-12-10T13:32:42;18.07;;;12.47;;
6438;SDS011;3252;52.540;13.290;2022-12-10T13:34:46;18.90;;;12.90;;
6438;SDS011;3252;52.540;13.290;2022-12-10T13:37:16;17.77;;;13.07;;
6438;SDS011;3252;52.540;13.290;2022-12-10T13:39:31;22.53;;;12.87;;
6438;SDS011;3252;52.540;13.290;2022-12-10T13:41:38;22.87;;;12.87;;
6438;SDS011;3252;52.540;13.290;2022-12-10T13:44:00;18.43;;;12.43;;
6438;SDS011;3252;52.540;13.290;2022-12-10T13:46:20;18.93;;;12.57;;
6438;SDS011;3252;52.540;13.290;2022-12-10T13:48:26;20.57;;;13.37;;
6438;SDS011;3252;52.540;13.290;2022-12-10T13:50:35;21.50;;;13.77;;
6438;SDS011;3252;52.540;13.290;2022-12-10T13:52:45;22.30;;;13.43;;
6438;SDS011;3252;52.540;13.290;2022-12-10T13:57:37;21.37;;;13.50;;
6438;SDS011;3252;52.540;13.290;2022-12-10T13:59:57;24.07;;;13.70;;
6438;SDS011;3252;52.540;13.290;2022-12-10T14:02:22;22.37;;;14.03;;
6438;SDS011;3252;52.540;13.290;2022-12-10T14:04:55;20.60;;;13.07;;
6438;SDS011;3252;52.540;13.290;2022-12-10T14:07:13;22.33;;;12.97;;
6438;SDS011;3252;52.540;13.290;2022-12-10T14:09:18;22.27;;;12.97;;
6438;SDS011;3252;52.540;13.290;2022-12-10T14:11:23;21.17;;;12.73;;
6438;SDS011;3252;52.540;13.290;2022-12-10T14:13:33;20.70;;;13.20;;
6438;SDS011;3252;52.540;13.290;2022-12-10T14:15:40;21.33;;;13.23;;
6438;SDS011;3252;52.540;13.290;2022-12-10T14:17:49;20.70;;;12.47;;
6438;SDS011;3252;52.540;13.290;2022-12-10T14:19:54;18.63;;;12.77;;
6438;SDS011;3252;52.540;13.290;2022-12-10T14:21:56;21.47;;;13.53;;